Time;durP1;ratioP1;P1;durP2;ratioP2;P2;SDS_P1;SDS_P2;PMS_P1;PMS_P2;Temp;Humidity;BMP_temperature;BMP_pressure;BME280_temperature;BME280_humidity;BME280_pressure;Samples;Min_cycle;Max_cycle;Signal;HPM_P1;HPM_P2
2022/04/18 00:01:18;;;;;;;;;1.67;1.67;;;;;17.05;27.55;100989.25;5076379;27;45508;-61
2022/04/18 00:03:43;;;;;;;;;2.33;2.33;;;;;17.04;27.88;100996.38;5076869;27;45998;-61
2022/04/18 00:06:08;;;;;;;;;1.00;1.00;;;;;17.05;27.39;100997.22;5066167;27;45430;-61
2022/04/18 00:08:34;;;;;;;;;3.00;1.00;;;;;17.05;27.31;100999.88;5056713;28;45454;-62
2022/04/18 00:10:59;;;;;;;;;2.00;2.00;;;;;16.95;27.54;100970.28;5056653;28;45524;-62
2022/04/18 00:13:25;;;;;;;;;2.00;2.00;;;;;17.00;28.13;100987.69;5056485;28;47351;-60
2022/04/18 00:15:50;;;;;;;;;1.67;1.67;;;;;17.02;27.51;100989.44;5056551;28;45529;-61
2022/04/18 00:18:15;;;;;;;;;2.67;2.00;;;;;17.00;27.85;100989.50;5056676;28;45405;-61
2022/04/18 00:20:41;;;;;;;;;2.00;2.00;;;;;16.98;27.92;100984.28;5064823;28;45553;-61
2022/04/18 00:23:06;;;;;;;;;2.33;1.00;;;;;16.95;27.40;100983.59;5076291;27;46000;-63
2022/04/18 00:25:31;;;;;;;;;2.00;2.00;;;;;16.94;27.93;100968.59;5068710;27;45508;-62
2022/04/18 00:27:57;;;;;;;;;3.00;3.00;;;;;16.96;28.28;100983.50;5056399;28;45509;-61
2022/04/18 00:30:22;;;;;;;;;2.00;2.00;;;;;16.97;28.12;100969.28;5056477;28;45437;-61
2022/04/18 00:32:47;;;;;;;;;1.67;1.67;;;;;16.97;27.59;100965.75;5067192;28;46156;-61
2022/04/18 00:35:13;;;;;;;;;2.00;2.00;;;;;16.95;27.37;100964.97;5076005;28;53455;-61
2022/04/18 00:37:40;;;;;;;;;2.00;2.00;;;;;16.92;27.96;100968.66;5076565;27;45475;-61
2022/04/18 00:40:06;;;;;;;;;4.00;2.00;;;;;16.90;27.37;100967.91;5076558;27;45577;-61
2022/04/18 00:42:32;;;;;;;;;2.00;2.00;;;;;16.90;27.20;100957.28;5055856;28;45374;-61
2022/04/18 00:44:58;;;;;;;;;3.00;3.00;;;;;16.88;27.43;100969.78;5056881;28;45562;-61
2022/04/18 00:47:23;;;;;;;;;2.33;2.33;;;;;16.83;26.93;100947.09;5056259;28;45446;-61
2022/04/18 00:49:48;;;;;;;;;1.00;1.00;;;;;16.84;27.51;100949.66;5055886;28;47922;-61
2022/04/18 00:52:14;;;;;;;;;2.00;2.00;;;;;16.78;27.29;100950.00;5055915;28;45340;-61
2022/04/18 00:54:41;;;;;;;;;2.00;2.00;;;;;16.74;26.93;100951.09;5056127;28;45426;-61
2022/04/18 00:57:07;;;;;;;;;3.33;3.00;;;;;16.70;26.68;100945.06;5074878;28;45606;-60
2022/04/18 00:59:33;;;;;;;;;3.67;3.67;;;;;16.71;27.04;100946.81;5076260;27;45478;-60
2022/04/18 01:01:59;;;;;;;;;3.33;3.33;;;;;16.67;27.11;100944.41;5075821;28;45998;-60
2022/04/18 01:04:24;;;;;;;;;5.67;5.67;;;;;16.65;27.41;100946.28;5075944;28;45483;-61
2022/04/18 01:06:49;;;;;;;;;5.00;5.00;;;;;16.64;27.28;100950.72;5076173;27;45629;-62
2022/04/18 01:09:15;;;;;;;;;5.00;5.00;;;;;16.68;27.27;100948.75;5075890;27;45600;-61
2022/04/18 01:11:41;;;;;;;;;4.67;4.00;;;;;16.64;26.90;100942.75;5057169;27;45981;-61
2022/04/18 01:14:06;;;;;;;;;5.00;4.00;;;;;16.62;27.06;100941.13;5055717;28;45395;-61
2022/04/18 01:16:32;;;;;;;;;2.00;2.00;;;;;16.57;27.42;100936.91;5055937;28;45748;-61
2022/04/18 01:18:57;;;;;;;;;3.00;2.00;;;;;16.50;26.98;100940.88;5055688;28;45578;-61
2022/04/18 01:21:23;;;;;;;;;3.00;3.00;;;;;16.46;27.22;100934.00;5055698;28;45547;-61
2022/04/18 01:23:48;;;;;;;;;2.00;2.00;;;;;16.44;27.36;100935.91;5055523;28;45442;-61
2022/04/18 01:28:58;;;;;;;;;2.00;2.00;;;;;16.41;27.84;100936.03;5075976;28;45388;-60
2022/04/18 01:31:24;;;;;;;;;3.00;2.00;;;;;16.44;27.78;100937.69;5074191;28;47643;-61
2022/04/18 01:33:50;;;;;;;;;1.00;1.00;;;;;16.37;27.73;100928.34;5075586;27;45374;-60
2022/04/18 01:36:15;;;;;;;;;3.00;2.00;;;;;16.33;27.91;100924.97;5073935;28;45580;-61
2022/04/18 01:38:40;;;;;;;;;2.00;2.00;;;;;16.34;27.62;100927.56;5075643;27;45507;-60
2022/04/18 01:41:06;;;;;;;;;2.00;2.00;;;;;16.34;28.41;100927.56;5075197;27;45493;-60
2022/04/18 01:43:31;;;;;;;;;2.00;2.00;;;;;16.37;27.85;100929.19;5075404;27;45463;-60
2022/04/18 01:45:56;;;;;;;;;2.67;2.67;;;;;16.40;27.59;100931.69;5065928;27;45431;-60
2022/04/18 01:48:22;;;;;;;;;4.00;3.00;;;;;16.41;27.76;100930.72;5055342;28;45421;-60
2022/04/18 01:50:47;;;;;;;;;2.00;2.00;;;;;16.40;27.83;100933.50;5055074;28;46207;-60
2022/04/18 01:53:12;;;;;;;;;1.00;1.00;;;;;16.43;28.14;100928.84;5055198;28;45501;-60
2022/04/18 01:55:38;;;;;;;;;2.00;2.00;;;;;16.40;27.44;100923.72;5055440;28;45943;-60
2022/04/18 01:58:05;;;;;;;;;3.00;3.00;;;;;16.27;27.71;100904.94;5055249;28;45429;-60
2022/04/18 02:00:32;;;;;;;;;2.00;2.00;;;;;16.42;27.88;100924.50;5062296;28;47048;-60
2022/04/18 02:02:57;;;;;;;;;1.00;1.00;;;;;16.39;28.46;100915.81;5075129;27;45646;-61
2022/04/18 02:05:23;;;;;;;;;3.00;3.00;;;;;16.38;28.24;100920.28;5075555;27;45440;-60
2022/04/18 02:07:48;;;;;;;;;2.00;1.67;;;;;16.38;28.20;100914.97;5075492;27;45520;-60
2022/04/18 02:10:13;;;;;;;;;3.67;1.33;;;;;16.38;28.17;100920.28;5056492;27;46161;-60
2022/04/18 02:12:39;;;;;;;;;3.67;3.00;;;;;16.37;28.03;100917.72;5054857;28;45561;-61
2022/04/18 02:15:05;;;;;;;;;2.67;2.00;;;;;16.36;28.75;100908.88;5055023;28;45431;-60
2022/04/18 02:17:30;;;;;;;;;2.33;2.33;;;;;16.37;28.03;100921.25;5054680;28;45591;-60
2022/04/18 02:19:56;;;;;;;;;2.67;2.67;;;;;16.22;27.71;100901.69;5054569;28;45508;-61
2022/04/18 02:22:24;;;;;;;;;2.00;2.00;;;;;16.32;28.58;100915.31;5054142;28;51525;-61
2022/04/18 02:24:50;;;;;;;;;2.00;2.00;;;;;16.30;28.54;100914.53;5059156;28;45360;-61
2022/04/18 02:27:16;;;;;;;;;2.33;1.00;;;;;16.31;28.81;100916.28;5061237;28;45606;-61
2022/04/18 02:29:43;;;;;;;;;2.00;2.00;;;;;16.30;28.50;100911.88;5077873;27;46277;-60
2022/04/18 02:34:52;;;;;;;;;2.00;2.00;;;;;16.29;28.42;100916.34;5077769;28;45390;-61
2022/04/18 02:37:18;;;;;;;;;2.00;2.00;;;;;16.29;28.41;100907.53;5058834;27;45383;-60
2022/04/18 02:39:43;;;;;;;;;2.00;2.00;;;;;16.26;28.73;100902.38;5058015;28;46284;-61
2022/04/18 02:42:08;;;;;;;;;2.00;2.00;;;;;16.23;29.08;100905.22;5057429;28;57666;-61
2022/04/18 02:44:34;;;;;;;;;1.33;1.33;;;;;16.17;28.67;100902.88;5056717;28;45470;-61
2022/04/18 02:46:59;;;;;;;;;3.33;3.33;;;;;16.13;29.05;100892.41;5057668;28;45606;-62
2022/04/18 02:49:25;;;;;;;;;2.33;2.33;;;;;16.15;29.76;100899.44;5057796;28;45406;-61
2022/04/18 02:51:50;;;;;;;;;4.00;3.00;;;;;16.15;29.63;100899.44;5065333;28;45387;-61
2022/04/18 02:54:16;;;;;;;;;2.00;2.00;;;;;16.13;29.16;100897.72;5078447;27;45405;-61
2022/04/18 02:56:41;;;;;;;;;4.33;3.00;;;;;16.13;29.30;100905.69;5078331;28;45404;-61
2022/04/18 02:59:09;;;;;;;;;3.00;3.00;;;;;16.10;29.33;100897.91;5077960;27;45378;-61
2022/04/18 03:01:35;;;;;;;;;2.00;2.00;;;;;16.11;29.12;100904.06;5077526;27;45484;-61
2022/04/18 03:04:00;;;;;;;;;4.00;2.33;;;;;16.08;29.22;100902.41;5078255;27;45562;-61
2022/04/18 03:06:25;;;;;;;;;3.67;3.67;;;;;16.08;29.08;100902.41;5071641;27;45513;-61
2022/04/18 03:08:51;;;;;;;;;2.00;2.00;;;;;16.02;30.02;100894.81;5058660;28;46114;-61
2022/04/18 03:11:16;;;;;;;;;2.00;2.00;;;;;15.99;29.16;100883.50;5057457;28;45428;-61
2022/04/18 03:13:44;;;;;;;;;3.00;3.00;;;;;16.04;29.87;100900.88;5057673;28;45370;-62
2022/04/18 03:16:11;;;;;;;;;3.00;3.00;;;;;16.00;29.69;100890.50;5057734;28;45442;-60
2022/04/18 03:18:36;;;;;;;;;1.33;1.33;;;;;16.01;29.77;100894.88;5056168;28;47279;-60
2022/04/18 03:21:03;;;;;;;;;3.33;3.00;;;;;15.95;29.86;100888.09;5057454;28;45490;-60
2022/04/18 03:23:28;;;;;;;;;3.00;3.00;;;;;15.97;29.99;100895.97;5056269;28;45564;-60
2022/04/18 03:25:53;;;;;;;;;3.00;3.00;;;;;15.96;30.02;100895.13;5057089;28;45425;-60
2022/04/18 03:28:19;;;;;;;;;2.00;2.00;;;;;15.90;29.90;100891.00;5057104;28;47054;-60
2022/04/18 03:30:44;;;;;;;;;2.00;2.00;;;;;15.93;29.50;100891.75;5057423;28;45438;-60
2022/04/18 03:33:10;;;;;;;;;3.00;3.00;;;;;15.86;29.43;100889.44;5057515;28;45643;-60
2022/04/18 03:35:35;;;;;;;;;3.33;3.33;;;;;15.82;30.01;100887.03;5056699;28;45501;-60
2022/04/18 03:40:44;;;;;;;;;2.00;2.00;;;;;15.78;29.46;100889.00;5057322;28;45485;-61
2022/04/18 03:43:10;;;;;;;;;2.33;2.33;;;;;15.76;29.13;100882.91;5057182;28;45513;-61
2022/04/18 03:45:35;;;;;;;;;2.00;2.00;;;;;15.77;29.76;100889.06;5063788;28;45390;-61
2022/04/18 03:48:00;;;;;;;;;1.67;1.67;;;;;15.75;30.14;100890.97;5077228;27;46017;-61
2022/04/18 03:50:26;;;;;;;;;2.33;2.33;;;;;15.72;30.02;100883.16;5077414;27;45455;-61
2022/04/18 03:52:52;;;;;;;;;2.00;2.00;;;;;15.64;29.97;100872.94;5077376;27;45416;-61
2022/04/18 03:55:17;;;;;;;;;3.00;3.00;;;;;15.65;30.14;100882.56;5077582;28;45527;-61
2022/04/18 03:57:43;;;;;;;;;2.67;2.67;;;;;15.65;30.41;100886.09;5076838;27;47286;-61
2022/04/18 04:00:10;;;;;;;;;2.00;2.00;;;;;15.66;30.90;100884.28;5071530;27;45772;-61
2022/04/18 04:02:35;;;;;;;;;4.00;4.00;;;;;15.58;29.61;100873.22;5056777;28;45494;-61
2022/04/18 04:05:01;;;;;;;;;2.00;2.00;;;;;15.60;30.05;100876.66;5056688;28;45414;-61
2022/04/18 04:07:26;;;;;;;;;2.67;2.67;;;;;15.61;30.25;100883.69;5056922;28;46170;-61
2022/04/18 04:09:53;;;;;;;;;3.00;3.00;;;;;15.61;30.24;100881.03;5056739;28;45435;-61
2022/04/18 04:12:26;;;;;;;;;1.00;1.00;;;;;15.62;30.08;100878.28;5055535;28;45449;-61
2022/04/18 04:14:52;;;;;;;;;3.67;3.00;;;;;15.63;30.34;100887.94;5056676;28;45434;-61
2022/04/18 04:17:18;;;;;;;;;4.00;4.00;;;;;15.62;30.48;100875.63;5073005;28;45900;-61
2022/04/18 04:19:44;;;;;;;;;3.00;3.00;;;;;15.62;29.88;100878.28;5076656;27;45450;-61
2022/04/18 04:22:10;;;;;;;;;4.33;2.67;;;;;15.57;30.69;100872.38;5076787;27;45448;-61
2022/04/18 04:24:35;;;;;;;;;3.00;3.00;;;;;15.55;29.91;100876.88;5075904;27;45488;-61
2022/04/18 04:27:00;;;;;;;;;4.33;4.33;;;;;15.52;30.88;100885.00;5076443;27;45829;-61
2022/04/18 04:29:26;;;;;;;;;3.00;3.00;;;;;15.47;30.36;100884.38;5076454;27;45374;-61
2022/04/18 04:31:51;;;;;;;;;2.00;2.00;;;;;15.42;29.92;100884.63;5076850;27;45411;-61
2022/04/18 04:34:16;;;;;;;;;3.00;3.00;;;;;15.39;30.36;100879.50;5076637;27;45427;-61
2022/04/18 04:36:42;;;;;;;;;2.00;2.00;;;;;15.36;31.04;100876.97;5076557;27;45442;-61
2022/04/18 04:39:08;;;;;;;;;4.00;4.00;;;;;15.32;30.56;100866.63;5060039;27;45559;-61
2022/04/18 04:41:33;;;;;;;;;3.33;3.33;;;;;15.31;30.80;100876.34;5056266;28;45461;-61
2022/04/18 04:43:59;;;;;;;;;2.00;2.00;;;;;15.29;30.98;100882.69;5056091;28;45445;-61
2022/04/18 04:46:24;;;;;;;;;4.00;4.00;;;;;15.31;30.20;100886.09;5056157;28;46147;-60
2022/04/18 04:48:49;;;;;;;;;4.00;3.00;;;;;15.25;30.71;100885.47;5055804;28;52335;-61
2022/04/18 04:51:14;;;;;;;;;3.00;3.00;;;;;15.22;30.31;100880.31;5056127;28;45588;-61
2022/04/18 04:53:40;;;;;;;;;3.00;3.00;;;;;15.20;30.22;100876.03;5070882;28;45633;-61
2022/04/18 04:56:05;;;;;;;;;2.67;2.67;;;;;15.21;30.99;100883.91;5076011;27;46023;-61
2022/04/18 04:58:30;;;;;;;;;3.00;3.00;;;;;15.20;30.41;100879.53;5075964;27;45320;-60
2022/04/18 05:00:56;;;;;;;;;3.67;3.00;;;;;15.20;30.71;100876.03;5075414;28;55269;-60
2022/04/18 05:03:22;;;;;;;;;2.67;2.67;;;;;15.21;30.54;100883.91;5071671;27;45557;-61
2022/04/18 05:05:47;;;;;;;;;5.00;3.67;;;;;15.23;30.77;100889.13;5067733;27;45531;-61
2022/04/18 05:08:13;;;;;;;;;3.00;3.00;;;;;15.20;30.79;100882.19;5094848;27;45450;-61
2022/04/18 05:10:38;;;;;;;;;3.00;3.00;;;;;15.19;31.02;100883.13;5083039;27;45775;-60
2022/04/18 05:13:04;;;;;;;;;4.00;3.67;;;;;15.12;30.60;100873.75;5076000;27;45500;-60
2022/04/18 05:15:31;;;;;;;;;5.33;4.33;;;;;15.18;31.02;100884.06;5075848;27;46292;-62
2022/04/18 05:17:56;;;;;;;;;4.00;3.00;;;;;15.15;31.87;100876.28;5075917;27;45467;-61
2022/04/18 05:20:22;;;;;;;;;4.00;3.33;;;;;15.15;31.12;100886.88;5076076;27;45380;-61
2022/04/18 05:22:47;;;;;;;;;7.00;5.00;;;;;15.12;30.43;100879.06;5075987;27;45369;-61
2022/04/18 05:25:12;;;;;;;;;6.00;6.00;;;;;15.13;31.42;100882.59;5075522;27;45414;-62
2022/04/18 05:27:38;;;;;;;;;3.00;3.00;;;;;15.11;30.58;100885.31;5075971;27;45400;-60
2022/04/18 05:30:05;;;;;;;;;4.00;4.00;;;;;15.10;30.58;100882.72;5075916;27;45402;-60
2022/04/18 05:32:30;;;;;;;;;3.00;3.00;;;;;15.06;31.00;100897.91;5075626;27;45413;-60
2022/04/18 05:34:56;;;;;;;;;2.00;2.00;;;;;15.05;30.85;100895.38;5075702;27;45935;-61
2022/04/18 05:37:21;;;;;;;;;4.00;4.00;;;;;15.00;30.98;100892.94;5073153;28;49787;-61
2022/04/18 05:39:46;;;;;;;;;3.67;3.67;;;;;14.96;30.30;100892.22;5064026;27;45910;-60
2022/04/18 05:42:12;;;;;;;;;4.00;3.00;;;;;14.97;31.50;100901.03;5091180;27;45530;-60
2022/04/18 05:44:37;;;;;;;;;3.00;3.00;;;;;14.98;31.06;100900.94;5091270;27;46162;-60
2022/04/18 05:47:02;;;;;;;;;2.67;2.67;;;;;14.97;30.77;100899.22;5075505;27;45425;-60
2022/04/18 05:49:28;;;;;;;;;5.33;5.33;;;;;14.91;30.80;100896.91;5075344;27;45446;-60
2022/04/18 05:51:53;;;;;;;;;2.67;2.67;;;;;14.96;31.17;100912.53;5073696;28;45355;-61
2022/04/18 05:54:18;;;;;;;;;3.00;3.00;;;;;14.94;30.62;100915.28;5073864;28;45404;-60
2022/04/18 05:56:44;;;;;;;;;4.33;4.00;;;;;14.92;30.78;100914.50;5069306;27;45474;-60
2022/04/18 05:59:09;;;;;;;;;4.00;4.00;;;;;14.93;30.72;100918.84;5068608;28;45418;-60
2022/04/18 06:01:35;;;;;;;;;3.00;3.00;;;;;14.97;31.28;100924.88;5062616;28;45516;-61
2022/04/18 06:04:01;;;;;;;;;4.00;4.00;;;;;14.96;31.36;100917.84;5078582;28;45483;-61
2022/04/18 06:06:26;;;;;;;;;4.33;4.00;;;;;15.00;31.07;100930.00;5080145;27;45387;-61
2022/04/18 06:08:52;;;;;;;;;6.00;4.00;;;;;15.03;31.10;100928.06;5087863;27;45490;-62
2022/04/18 06:11:17;;;;;;;;;3.00;3.00;;;;;15.09;30.99;100929.56;5099132;27;45417;-61
2022/04/18 06:13:45;;;;;;;;;3.33;3.33;;;;;15.09;31.48;100924.25;5088705;27;45803;-61
2022/04/18 06:16:11;;;;;;;;;4.00;4.00;;;;;15.14;31.24;100929.34;5079913;27;45670;-61
2022/04/18 06:18:36;;;;;;;;;4.00;4.00;;;;;15.13;31.53;100925.84;5099083;27;45501;-61
2022/04/18 06:21:01;;;;;;;;;4.00;4.00;;;;;15.13;30.93;100927.63;5098358;27;45575;-61
2022/04/18 06:23:27;;;;;;;;;3.00;3.00;;;;;15.11;30.56;100930.34;5098469;27;45436;-61
2022/04/18 06:25:52;;;;;;;;;3.00;3.00;;;;;15.12;30.87;100925.91;5088545;27;45456;-60
2022/04/18 06:28:21;;;;;;;;;4.00;4.00;;;;;15.15;30.65;100934.56;5078179;27;45428;-61
2022/04/18 06:30:46;;;;;;;;;4.00;4.00;;;;;15.12;30.50;100924.09;5077440;27;45475;-61
2022/04/18 06:33:12;;;;;;;;;3.00;3.00;;;;;15.15;30.75;100931.94;5077413;27;45964;-62
2022/04/18 06:35:38;;;;;;;;;6.00;5.00;;;;;15.13;30.70;100936.44;5077810;27;45464;-60
2022/04/18 06:38:04;;;;;;;;;4.00;4.00;;;;;15.13;30.68;100932.94;5077940;27;45461;-60
2022/04/18 06:40:30;;;;;;;;;3.00;3.00;;;;;15.02;31.09;100917.56;5077886;28;45463;-61
2022/04/18 06:42:55;;;;;;;;;4.00;3.00;;;;;15.06;31.10;100927.06;5075516;27;45424;-60
2022/04/18 06:45:20;;;;;;;;;4.33;3.67;;;;;15.09;30.63;100924.25;5059429;27;45433;-60
2022/04/18 06:47:45;;;;;;;;;5.00;4.00;;;;;15.13;31.49;100928.47;5064473;28;45408;-59
2022/04/18 06:50:12;;;;;;;;;3.67;3.67;;;;;15.19;30.73;100935.28;5091683;27;45437;-60
2022/04/18 06:52:39;;;;;;;;;4.33;4.33;;;;;15.19;30.53;100930.81;5097864;27;45423;-60
2022/04/18 06:55:05;;;;;;;;;4.33;4.00;;;;;15.20;31.52;100918.44;5069537;27;45684;-60
2022/04/18 06:57:31;;;;;;;;;4.33;4.33;;;;;15.22;31.11;100913.91;5094739;27;45439;-59
2022/04/18 06:59:56;;;;;;;;;5.33;4.33;;;;;15.28;31.01;100920.69;5097811;27;45542;-59
2022/04/18 07:02:21;;;;;;;;;3.00;3.00;;;;;15.27;30.51;100919.00;5093587;27;55468;-60
2022/04/18 07:04:49;;;;;;;;;3.00;2.67;;;;;15.24;31.19;100918.22;5063212;27;45805;-61
2022/04/18 07:07:14;;;;;;;;;5.00;5.00;;;;;15.23;30.72;100920.91;5057312;28;45421;-58
2022/04/18 07:09:40;;;;;;;;;4.67;4.67;;;;;15.21;31.06;100913.06;5059363;28;45493;-59
2022/04/18 07:12:05;;;;;;;;;5.00;5.00;;;;;15.23;31.66;100919.16;5074209;27;45932;-60
2022/04/18 07:14:31;;;;;;;;;5.00;5.00;;;;;15.24;31.33;100917.34;5058624;28;45594;-59
2022/04/18 07:16:57;;;;;;;;;6.00;5.33;;;;;15.28;31.23;100920.69;5073192;28;45394;-59
2022/04/18 07:19:22;;;;;;;;;5.00;5.00;;;;;15.26;31.23;100926.09;5068017;27;45688;-61
2022/04/18 07:21:48;;;;;;;;;5.67;5.67;;;;;15.27;31.89;100916.34;5097466;27;46027;-62
2022/04/18 07:24:13;;;;;;;;;3.33;3.33;;;;;15.28;31.22;100921.56;5086868;27;45588;-60
2022/04/18 07:26:39;;;;;;;;;6.00;6.00;;;;;15.32;31.63;100930.22;5073196;27;45428;-60
2022/04/18 07:29:04;;;;;;;;;5.67;5.67;;;;;15.34;30.61;100923.91;5076391;27;45469;-61
2022/04/18 07:31:31;;;;;;;;;6.00;6.00;;;;;15.35;31.42;100928.28;5076289;27;46293;-58
2022/04/18 07:33:56;;;;;;;;;6.00;6.00;;;;;15.40;31.91;100928.06;5069271;27;45521;-59
2022/04/18 07:36:22;;;;;;;;;4.67;4.67;;;;;15.40;31.31;100926.25;5066279;28;45602;-60
2022/04/18 07:38:50;;;;;;;;;4.00;4.00;;;;;15.43;31.50;100920.78;5076453;27;45651;-63
2022/04/18 07:41:26;;;;;;;;;9.00;4.67;;;;;15.49;31.75;100924.06;5076486;27;45504;-65
2022/04/18 07:43:53;;;;;;;;;6.00;6.00;;;;;15.51;30.80;100925.72;5074936;28;46172;-64
2022/04/18 07:46:19;;;;;;;;;6.00;6.00;;;;;15.56;31.70;100926.34;5076689;27;45452;-60
2022/04/18 07:48:47;;;;;;;;;6.00;6.00;;;;;15.59;31.61;100925.31;5076973;27;45394;-60
2022/04/18 07:53:56;;;;;;;;;4.33;4.33;;;;;15.64;30.76;100916.19;5076533;28;45533;-60
2022/04/18 07:56:22;;;;;;;;;4.67;4.67;;;;;15.74;30.50;100932.50;5076525;27;45402;-61
2022/04/18 07:58:49;;;;;;;;;8.00;7.00;;;;;15.78;31.11;100933.22;5076626;27;45599;-64
2022/04/18 08:01:14;;;;;;;;;5.00;5.00;;;;;15.79;30.82;100929.63;5076116;27;45685;-60
2022/04/18 08:03:40;;;;;;;;;6.00;6.00;;;;;15.84;31.24;100928.44;5076179;28;45514;-61
2022/04/18 08:06:05;;;;;;;;;6.00;5.00;;;;;15.82;30.90;100924.16;5076451;27;45999;-63
2022/04/18 08:08:31;;;;;;;;;6.67;6.67;;;;;15.84;30.81;100928.44;5075303;28;45555;-63
2022/04/18 08:11:00;;;;;;;;;6.00;5.67;;;;;15.85;30.51;100919.56;5076301;27;45501;-62
2022/04/18 08:13:26;;;;;;;;;5.00;5.00;;;;;15.88;31.12;100932.66;5076239;28;45531;-63
2022/04/18 08:15:52;;;;;;;;;5.67;5.33;;;;;15.87;30.98;100930.94;5076398;27;45451;-64
2022/04/18 08:18:17;;;;;;;;;7.33;7.33;;;;;15.81;30.88;100925.09;5076147;27;45311;-62
2022/04/18 08:20:43;;;;;;;;;8.67;6.67;;;;;15.83;30.96;100924.09;5075981;27;45997;-61
2022/04/18 08:23:08;;;;;;;;;6.00;6.00;;;;;15.81;30.86;100922.47;5076279;27;45429;-62
2022/04/18 08:25:34;;;;;;;;;6.67;6.67;;;;;15.83;31.07;100916.13;5076196;27;45378;-63
2022/04/18 08:27:59;;;;;;;;;5.67;5.67;;;;;15.89;30.41;100915.81;5076161;28;45590;-62
2022/04/18 08:30:24;;;;;;;;;7.67;7.67;;;;;15.93;30.62;100912.97;5076040;27;45405;-63
2022/04/18 08:32:50;;;;;;;;;8.00;7.67;;;;;15.97;31.30;100918.06;5075869;27;45385;-62
2022/04/18 08:35:16;;;;;;;;;5.00;5.00;;;;;16.02;31.29;100913.38;5076260;27;45395;-63
2022/04/18 08:37:41;;;;;;;;;6.00;6.00;;;;;16.11;30.44;100914.66;5075910;28;45420;-65
2022/04/18 08:40:10;;;;;;;;;9.33;8.00;;;;;16.15;30.28;100913.59;5075746;27;45807;-63
2022/04/18 08:42:37;;;;;;;;;8.00;7.00;;;;;16.19;30.74;100914.25;5075802;27;45509;-61
2022/04/18 08:45:05;;;;;;;;;7.67;7.00;;;;;16.25;30.98;100912.13;5075841;27;45418;-62
2022/04/18 08:53:02;;;;;;;;;7.33;7.33;;;;;16.40;30.02;100902.47;5075652;28;45616;-63
2022/04/18 08:55:28;;;;;;;;;9.67;9.00;;;;;16.44;30.23;100913.78;5074134;27;45455;-61
2022/04/18 08:57:53;;;;;;;;;7.67;6.67;;;;;16.42;29.69;100910.38;5073655;27;45390;-61
2022/04/18 09:00:18;;;;;;;;;10.00;9.33;;;;;16.39;30.07;100906.09;5073087;27;49712;-61
2022/04/18 09:02:44;;;;;;;;;8.67;8.67;;;;;16.44;29.77;100912.00;5057794;28;45647;-61
2022/04/18 09:05:13;;;;;;;;;8.67;8.67;;;;;16.45;29.87;100900.44;5057988;28;45402;-62
2022/04/18 09:07:43;;;;;;;;;13.00;10.00;;;;;16.45;29.89;100908.41;5055621;28;45622;-62
2022/04/18 09:10:09;;;;;;;;;11.00;9.67;;;;;16.55;30.42;100909.63;5055127;28;46299;-60
2022/04/18 09:12:40;;;;;;;;;10.00;10.00;;;;;16.62;30.16;100912.78;5054981;28;45572;-60
2022/04/18 09:15:09;;;;;;;;;11.00;11.00;;;;;16.77;30.89;100913.75;5055122;28;45453;-61
2022/04/18 09:17:36;;;;;;;;;9.67;9.67;;;;;16.81;30.35;100909.13;5054944;28;45487;-62
2022/04/18 09:20:12;;;;;;;;;10.33;9.00;;;;;16.84;29.70;100909.78;5054640;28;45391;-60
2022/04/18 09:22:48;;;;;;;;;11.33;11.33;;;;;16.90;30.42;100912.13;5054989;28;45395;-61
2022/04/18 09:25:22;;;;;;;;;17.00;16.33;;;;;16.92;30.39;100904.91;5054996;28;45370;-59
2022/04/18 09:27:52;;;;;;;;;13.00;13.00;;;;;16.96;30.50;100910.91;5055109;28;45457;-63
2022/04/18 09:30:18;;;;;;;;;11.67;11.00;;;;;17.01;29.01;100911.53;5054610;28;46048;-62
2022/04/18 09:32:55;;;;;;;;;9.33;9.33;;;;;16.97;29.71;100905.50;5052529;28;45382;-60
2022/04/18 09:35:24;;;;;;;;;12.33;12.33;;;;;17.08;29.80;100899.56;5054889;28;45421;-62
2022/04/18 09:37:51;;;;;;;;;11.67;10.00;;;;;17.13;29.36;100897.50;5055030;28;45395;-60
2022/04/18 09:40:22;;;;;;;;;11.33;11.33;;;;;17.15;30.10;100903.59;5066575;28;45472;-62
2022/04/18 09:42:52;;;;;;;;;11.33;10.67;;;;;17.13;29.62;100894.00;5056217;28;45749;-60
2022/04/18 09:45:18;;;;;;;;;10.00;10.00;;;;;17.16;29.53;100896.47;5061030;28;45532;-59
2022/04/18 09:47:43;;;;;;;;;12.67;11.67;;;;;17.22;29.29;100891.66;5089122;27;45504;-59
2022/04/18 09:53:24;;;;;;;;;10.00;10.00;;;;;17.32;28.73;100889.31;5072296;28;45604;-61
2022/04/18 09:55:52;;;;;;;;;14.00;11.00;;;;;17.35;28.99;100890.94;5074443;27;45512;-62
2022/04/18 09:58:17;;;;;;;;;11.67;10.67;;;;;17.37;29.49;100887.25;5073528;27;45550;-62
2022/04/18 10:00:43;;;;;;;;;12.00;12.00;;;;;17.44;28.96;100888.59;5072719;28;45446;-60
2022/04/18 10:03:09;;;;;;;;;9.00;9.00;;;;;17.52;29.40;100889.97;5073958;27;45468;-62
2022/04/18 10:05:35;;;;;;;;;11.67;11.67;;;;;17.54;28.91;100891.53;5073915;28;45457;-59
2022/04/18 10:08:03;;;;;;;;;12.67;12.67;;;;;17.58;28.90;100893.09;5074113;28;45480;-61
2022/04/18 10:10:33;;;;;;;;;11.67;11.67;;;;;17.62;28.95;100881.34;5073931;27;46001;-61
2022/04/18 10:12:59;;;;;;;;;10.00;9.00;;;;;17.71;29.33;100884.38;5074053;27;45389;-60
2022/04/18 10:15:26;;;;;;;;;10.33;10.33;;;;;17.76;28.99;100880.50;5074704;27;45435;-61
2022/04/18 10:17:52;;;;;;;;;9.00;9.00;;;;;17.81;29.20;100886.44;5074656;27;45639;-61
2022/04/18 10:20:41;;;;;;;;;9.33;9.33;;;;;17.84;27.99;100880.06;5074411;27;46213;-61
2022/04/18 10:23:33;;;;;;;;;12.00;10.00;;;;;17.85;28.08;100887.09;5074454;28;45433;-61
2022/04/18 10:26:07;;;;;;;;;12.00;12.00;;;;;17.86;28.18;100873.66;5074494;27;45490;-63
2022/04/18 10:28:37;;;;;;;;;11.00;11.00;;;;;17.88;28.15;100874.44;5074538;27;45388;-61
2022/04/18 10:31:11;;;;;;;;;11.00;11.00;;;;;17.95;28.58;100874.09;5074404;28;46981;-60
2022/04/18 10:33:37;;;;;;;;;13.67;11.67;;;;;17.96;27.81;100873.97;5074471;27;45553;-59
2022/04/18 10:36:04;;;;;;;;;9.00;9.00;;;;;17.98;27.45;100877.41;5073211;28;45441;-61
2022/04/18 10:38:36;;;;;;;;;10.00;10.00;;;;;17.98;27.65;100869.41;5074257;27;45397;-62
2022/04/18 10:41:14;;;;;;;;;10.33;10.00;;;;;18.00;27.41;100866.63;5074222;27;46108;-61
2022/04/18 10:43:59;;;;;;;;;12.67;12.67;;;;;18.01;27.41;100865.72;5074711;27;45386;-59
2022/04/18 10:46:25;;;;;;;;;9.00;9.00;;;;;18.03;27.29;100863.81;5077884;27;45394;-62
2022/04/18 10:49:13;;;;;;;;;10.00;10.00;;;;;18.05;27.68;100862.78;5077789;28;45599;-60
2022/04/18 10:51:39;;;;;;;;;10.33;8.67;;;;;18.09;27.32;100858.94;5077714;27;46265;-59
2022/04/18 10:54:16;;;;;;;;;11.00;11.00;;;;;18.16;27.16;100854.09;5077486;27;45538;-61
2022/04/18 10:56:52;;;;;;;;;12.33;10.33;;;;;18.17;27.25;100853.16;5077608;27;45469;-60
2022/04/18 10:59:20;;;;;;;;;11.67;11.67;;;;;18.22;27.69;100852.88;5077676;27;45487;-62
2022/04/18 11:01:46;;;;;;;;;10.67;10.67;;;;;18.27;27.67;100850.78;5077330;27;46094;-61
2022/04/18 11:04:12;;;;;;;;;10.00;10.00;;;;;18.28;27.74;100847.16;5077491;27;45479;-60
2022/04/18 11:06:38;;;;;;;;;6.67;6.67;;;;;18.30;27.51;100851.41;5077594;28;45414;-61
2022/04/18 11:09:09;;;;;;;;;8.33;8.00;;;;;18.32;27.40;100851.31;5077619;28;45540;-60
2022/04/18 11:11:40;;;;;;;;;11.00;10.00;;;;;18.35;27.44;100850.25;5077278;27;46720;-62
2022/04/18 11:14:18;;;;;;;;;10.00;10.00;;;;;18.29;27.09;100833.72;5075770;28;45395;-61
2022/04/18 11:16:43;;;;;;;;;10.33;9.00;;;;;18.37;26.92;100851.00;5077571;27;45351;-61
2022/04/18 11:19:17;;;;;;;;;7.67;7.67;;;;;18.38;27.05;100836.78;5077427;27;45529;-61
2022/04/18 11:22:01;;;;;;;;;7.67;7.67;;;;;18.41;26.93;100834.75;5077364;27;46338;-62
2022/04/18 11:24:39;;;;;;;;;5.67;5.00;;;;;18.48;26.91;100838.75;5075864;28;45359;-61
2022/04/18 11:27:16;;;;;;;;;5.33;5.33;;;;;18.53;26.67;100830.44;5075839;27;45475;-61
2022/04/18 11:29:50;;;;;;;;;9.00;9.00;;;;;18.55;26.40;100834.72;5077294;27;45402;-59
2022/04/18 11:32:17;;;;;;;;;7.00;7.00;;;;;18.63;26.39;100831.56;5077098;27;46057;-61
2022/04/18 11:34:44;;;;;;;;;6.67;6.33;;;;;18.63;25.28;100830.69;5075496;28;45592;-60
2022/04/18 11:37:12;;;;;;;;;9.67;7.67;;;;;18.66;25.40;100825.16;5077289;28;45508;-63
2022/04/18 11:39:48;;;;;;;;;6.00;6.00;;;;;18.69;25.33;100815.16;5077140;27;45489;-60